sensor_id;sensor_type;location;lat;lon;timestamp;temperature;humidity
18083;DHT22;9168;51.194;6.840;2024-02-21T00:02:09;9.50;99.90
18083;DHT22;9168;51.194;6.840;2024-02-21T00:04:36;9.50;99.90
18083;DHT22;9168;51.194;6.840;2024-02-21T00:07:04;9.40;99.90
18083;DHT22;9168;51.194;6.840;2024-02-21T00:09:31;9.40;99.90
18083;DHT22;9168;51.194;6.840;2024-02-21T00:11:58;9.40;99.90
18083;DHT22;9168;51.194;6.840;2024-02-21T00:14:26;9.50;99.90
18083;DHT22;9168;51.194;6.840;2024-02-21T00:16:53;9.50;99.90
18083;DHT22;9168;51.194;6.840;2024-02-21T00:19:20;9.50;99.90
18083;DHT22;9168;51.194;6.840;2024-02-21T00:21:47;9.50;99.90
18083;DHT22;9168;51.194;6.840;2024-02-21T00:24:14;9.60;99.90
18083;DHT22;9168;51.194;6.840;2024-02-21T00:26:43;9.50;99.90
18083;DHT22;9168;51.194;6.840;2024-02-21T00:29:10;9.50;99.90
18083;DHT22;9168;51.194;6.840;2024-02-21T00:31:38;9.50;99.90
18083;DHT22;9168;51.194;6.840;2024-02-21T00:34:05;9.50;99.90
18083;DHT22;9168;51.194;6.840;2024-02-21T00:36:32;9.50;99.90
18083;DHT22;9168;51.194;6.840;2024-02-21T00:38:59;9.60;99.90
18083;DHT22;9168;51.194;6.840;2024-02-21T00:41:26;9.50;99.90
18083;DHT22;9168;51.194;6.840;2024-02-21T00:43:52;9.50;99.90
18083;DHT22;9168;51.194;6.840;2024-02-21T00:46:19;9.50;99.90
18083;DHT22;9168;51.194;6.840;2024-02-21T00:48:47;9.50;99.90
18083;DHT22;9168;51.194;6.840;2024-02-21T00:51:15;9.50;99.90
18083;DHT22;9168;51.194;6.840;2024-02-21T00:53:42;9.50;99.90
18083;DHT22;9168;51.194;6.840;2024-02-21T00:56:09;9.50;99.90
18083;DHT22;9168;51.194;6.840;2024-02-21T00:58:36;9.50;99.90
18083;DHT22;9168;51.194;6.840;2024-02-21T01:01:03;9.50;99.90
18083;DHT22;9168;51.194;6.840;2024-02-21T01:03:30;9.50;99.90
18083;DHT22;9168;51.194;6.840;2024-02-21T01:05:58;9.50;99.90
18083;DHT22;9168;51.194;6.840;2024-02-21T01:08:25;9.60;99.90
18083;DHT22;9168;51.194;6.840;2024-02-21T01:10:52;9.60;99.90
18083;DHT22;9168;51.194;6.840;2024-02-21T01:13:19;9.50;99.90
18083;DHT22;9168;51.194;6.840;2024-02-21T01:15:45;9.60;99.90
18083;DHT22;9168;51.194;6.840;2024-02-21T01:18:12;9.50;99.90
18083;DHT22;9168;51.194;6.840;2024-02-21T01:20:40;9.50;99.90
18083;DHT22;9168;51.194;6.840;2024-02-21T01:23:08;9.50;99.90
18083;DHT22;9168;51.194;6.840;2024-02-21T01:25:35;9.60;99.90
18083;DHT22;9168;51.194;6.840;2024-02-21T01:28:02;9.50;99.90
18083;DHT22;9168;51.194;6.840;2024-02-21T01:30:29;9.50;99.90
18083;DHT22;9168;51.194;6.840;2024-02-21T01:32:55;9.50;99.90
18083;DHT22;9168;51.194;6.840;2024-02-21T01:35:22;9.50;99.90
18083;DHT22;9168;51.194;6.840;2024-02-21T01:37:49;9.50;99.90
18083;DHT22;9168;51.194;6.840;2024-02-21T01:40:18;9.60;99.90
18083;DHT22;9168;51.194;6.840;2024-02-21T01:42:45;9.50;99.90
18083;DHT22;9168;51.194;6.840;2024-02-21T01:45:13;9.50;99.90
18083;DHT22;9168;51.194;6.840;2024-02-21T01:47:40;9.50;99.90
18083;DHT22;9168;51.194;6.840;2024-02-21T01:50:08;9.50;99.90
18083;DHT22;9168;51.194;6.840;2024-02-21T01:52:36;9.40;99.90
18083;DHT22;9168;51.194;6.840;2024-02-21T01:55:06;9.40;99.90
18083;DHT22;9168;51.194;6.840;2024-02-21T01:57:35;9.40;99.90
18083;DHT22;9168;51.194;6.840;2024-02-21T02:00:02;9.40;99.90
18083;DHT22;9168;51.194;6.840;2024-02-21T02:02:29;9.40;99.90
18083;DHT22;9168;51.194;6.840;2024-02-21T02:04:56;9.40;99.90
18083;DHT22;9168;51.194;6.840;2024-02-21T02:07:23;9.50;99.90
18083;DHT22;9168;51.194;6.840;2024-02-21T02:09:50;9.40;99.90
18083;DHT22;9168;51.194;6.840;2024-02-21T02:12:17;9.50;99.90
18083;DHT22;9168;51.194;6.840;2024-02-21T02:14:45;9.50;99.90
18083;DHT22;9168;51.194;6.840;2024-02-21T02:17:12;9.40;99.90
18083;DHT22;9168;51.194;6.840;2024-02-21T02:19:39;9.40;99.90
18083;DHT22;9168;51.194;6.840;2024-02-21T02:22:12;9.40;99.90
18083;DHT22;9168;51.194;6.840;2024-02-21T02:24:42;9.40;99.90
18083;DHT22;9168;51.194;6.840;2024-02-21T02:27:10;9.40;99.90
18083;DHT22;9168;51.194;6.840;2024-02-21T02:29:36;9.40;99.90
18083;DHT22;9168;51.194;6.840;2024-02-21T02:32:04;9.40;99.90
18083;DHT22;9168;51.194;6.840;2024-02-21T02:34:31;9.40;99.90
18083;DHT22;9168;51.194;6.840;2024-02-21T02:36:58;9.40;99.90
18083;DHT22;9168;51.194;6.840;2024-02-21T02:39:24;9.50;99.90
18083;DHT22;9168;51.194;6.840;2024-02-21T02:41:53;9.40;99.90
18083;DHT22;9168;51.194;6.840;2024-02-21T02:44:20;9.40;99.90
18083;DHT22;9168;51.194;6.840;2024-02-21T02:46:46;9.40;99.90
18083;DHT22;9168;51.194;6.840;2024-02-21T02:49:13;9.50;99.90
18083;DHT22;9168;51.194;6.840;2024-02-21T02:51:41;9.50;99.90
18083;DHT22;9168;51.194;6.840;2024-02-21T02:54:09;9.50;99.90
18083;DHT22;9168;51.194;6.840;2024-02-21T02:56:35;9.50;99.90
18083;DHT22;9168;51.194;6.840;2024-02-21T02:59:04;9.40;99.90
18083;DHT22;9168;51.194;6.840;2024-02-21T03:01:33;9.40;99.90
18083;DHT22;9168;51.194;6.840;2024-02-21T03:04:00;9.40;99.90
18083;DHT22;9168;51.194;6.840;2024-02-21T03:06:27;9.40;99.90
18083;DHT22;9168;51.194;6.840;2024-02-21T03:08:54;9.40;99.90
18083;DHT22;9168;51.194;6.840;2024-02-21T03:11:21;9.40;99.90
18083;DHT22;9168;51.194;6.840;2024-02-21T03:13:54;9.40;99.90
18083;DHT22;9168;51.194;6.840;2024-02-21T03:16:22;9.40;99.90
18083;DHT22;9168;51.194;6.840;2024-02-21T03:18:49;9.40;99.90
18083;DHT22;9168;51.194;6.840;2024-02-21T03:21:16;9.40;99.90
18083;DHT22;9168;51.194;6.840;2024-02-21T03:23:43;9.40;99.90
18083;DHT22;9168;51.194;6.840;2024-02-21T03:26:10;9.30;99.90
18083;DHT22;9168;51.194;6.840;2024-02-21T03:28:36;9.40;99.90
18083;DHT22;9168;51.194;6.840;2024-02-21T03:31:05;9.40;99.90
18083;DHT22;9168;51.194;6.840;2024-02-21T03:33:33;9.40;99.90
18083;DHT22;9168;51.194;6.840;2024-02-21T03:36:00;9.40;99.90
18083;DHT22;9168;51.194;6.840;2024-02-21T03:38:27;9.40;99.90
18083;DHT22;9168;51.194;6.840;2024-02-21T03:40:53;9.40;99.90
18083;DHT22;9168;51.194;6.840;2024-02-21T03:43:20;9.40;99.90
18083;DHT22;9168;51.194;6.840;2024-02-21T03:45:47;9.30;99.90
18083;DHT22;9168;51.194;6.840;2024-02-21T03:48:14;9.30;99.90
18083;DHT22;9168;51.194;6.840;2024-02-21T03:50:43;9.30;99.90
18083;DHT22;9168;51.194;6.840;2024-02-21T03:53:09;9.30;99.90
18083;DHT22;9168;51.194;6.840;2024-02-21T03:55:36;9.30;99.90
18083;DHT22;9168;51.194;6.840;2024-02-21T03:58:02;9.30;99.90
18083;DHT22;9168;51.194;6.840;2024-02-21T04:00:29;9.30;99.90
18083;DHT22;9168;51.194;6.840;2024-02-21T04:02:56;9.30;99.90
18083;DHT22;9168;51.194;6.840;2024-02-21T04:05:23;9.30;99.90
18083;DHT22;9168;51.194;6.840;2024-02-21T04:07:51;9.30;99.90
18083;DHT22;9168;51.194;6.840;2024-02-21T04:10:18;9.30;99.90
18083;DHT22;9168;51.194;6.840;2024-02-21T04:12:45;9.30;99.90
18083;DHT22;9168;51.194;6.840;2024-02-21T04:15:11;9.30;99.90
18083;DHT22;9168;51.194;6.840;2024-02-21T04:17:38;9.30;99.90
18083;DHT22;9168;51.194;6.840;2024-02-21T04:20:06;9.30;99.90
18083;DHT22;9168;51.194;6.840;2024-02-21T04:22:34;9.30;99.90
18083;DHT22;9168;51.194;6.840;2024-02-21T04:25:02;9.30;99.90
18083;DHT22;9168;51.194;6.840;2024-02-21T04:27:29;9.30;99.90
18083;DHT22;9168;51.194;6.840;2024-02-21T04:29:56;9.30;99.90
18083;DHT22;9168;51.194;6.840;2024-02-21T04:32:23;9.30;99.90
18083;DHT22;9168;51.194;6.840;2024-02-21T04:34:52;9.30;99.90
18083;DHT22;9168;51.194;6.840;2024-02-21T04:37:20;9.30;99.90
18083;DHT22;9168;51.194;6.840;2024-02-21T04:39:49;9.30;99.90
18083;DHT22;9168;51.194;6.840;2024-02-21T04:42:17;9.30;99.90
18083;DHT22;9168;51.194;6.840;2024-02-21T04:44:44;9.30;99.90
18083;DHT22;9168;51.194;6.840;2024-02-21T04:47:11;9.30;99.90
18083;DHT22;9168;51.194;6.840;2024-02-21T04:49:38;9.40;99.90
18083;DHT22;9168;51.194;6.840;2024-02-21T04:52:05;9.30;99.90
18083;DHT22;9168;51.194;6.840;2024-02-21T04:54:32;9.30;99.90
18083;DHT22;9168;51.194;6.840;2024-02-21T04:57:00;9.30;99.90
18083;DHT22;9168;51.194;6.840;2024-02-21T04:59:29;9.30;99.90
18083;DHT22;9168;51.194;6.840;2024-02-21T05:01:56;9.40;99.90
18083;DHT22;9168;51.194;6.840;2024-02-21T05:04:24;9.30;99.90
18083;DHT22;9168;51.194;6.840;2024-02-21T05:06:51;9.30;99.90
18083;DHT22;9168;51.194;6.840;2024-02-21T05:09:17;9.30;99.90
18083;DHT22;9168;51.194;6.840;2024-02-21T05:11:44;9.30;99.90
18083;DHT22;9168;51.194;6.840;2024-02-21T05:14:11;9.40;99.90
18083;DHT22;9168;51.194;6.840;2024-02-21T05:16:40;9.40;99.90
18083;DHT22;9168;51.194;6.840;2024-02-21T05:19:07;9.40;99.90
18083;DHT22;9168;51.194;6.840;2024-02-21T05:21:33;9.40;99.90
18083;DHT22;9168;51.194;6.840;2024-02-21T05:24:00;9.40;99.90
18083;DHT22;9168;51.194;6.840;2024-02-21T05:26:27;9.30;99.90
18083;DHT22;9168;51.194;6.840;2024-02-21T05:28:54;9.40;99.90
18083;DHT22;9168;51.194;6.840;2024-02-21T05:31:21;9.30;99.90
18083;DHT22;9168;51.194;6.840;2024-02-21T05:33:49;9.30;99.90
18083;DHT22;9168;51.194;6.840;2024-02-21T05:36:16;9.30;99.90
18083;DHT22;9168;51.194;6.840;2024-02-21T05:38:43;9.30;99.90
18083;DHT22;9168;51.194;6.840;2024-02-21T05:41:10;9.30;99.90
18083;DHT22;9168;51.194;6.840;2024-02-21T05:43:37;9.30;99.90
18083;DHT22;9168;51.194;6.840;2024-02-21T05:46:04;9.30;99.90
18083;DHT22;9168;51.194;6.840;2024-02-21T05:48:31;9.30;99.90
18083;DHT22;9168;51.194;6.840;2024-02-21T05:51:01;9.30;99.90
18083;DHT22;9168;51.194;6.840;2024-02-21T05:53:28;9.30;99.90
18083;DHT22;9168;51.194;6.840;2024-02-21T05:55:56;9.30;99.90
18083;DHT22;9168;51.194;6.840;2024-02-21T05:58:23;9.30;99.90
18083;DHT22;9168;51.194;6.840;2024-02-21T06:00:50;9.40;99.90
18083;DHT22;9168;51.194;6.840;2024-02-21T06:03:17;9.30;99.90
18083;DHT22;9168;51.194;6.840;2024-02-21T06:05:44;9.30;99.90
18083;DHT22;9168;51.194;6.840;2024-02-21T06:08:12;9.40;99.90
18083;DHT22;9168;51.194;6.840;2024-02-21T06:10:39;9.30;99.90
18083;DHT22;9168;51.194;6.840;2024-02-21T06:13:06;9.40;99.90
18083;DHT22;9168;51.194;6.840;2024-02-21T06:15:33;9.30;99.90
18083;DHT22;9168;51.194;6.840;2024-02-21T06:18:00;9.30;99.90
18083;DHT22;9168;51.194;6.840;2024-02-21T06:20:26;9.30;99.90
18083;DHT22;9168;51.194;6.840;2024-02-21T06:22:53;9.30;99.90
18083;DHT22;9168;51.194;6.840;2024-02-21T06:25:22;9.30;99.90
18083;DHT22;9168;51.194;6.840;2024-02-21T06:27:48;9.40;99.90
18083;DHT22;9168;51.194;6.840;2024-02-21T06:30:15;9.40;99.90
18083;DHT22;9168;51.194;6.840;2024-02-21T06:32:42;9.40;99.90
18083;DHT22;9168;51.194;6.840;2024-02-21T06:35:09;9.30;99.90
18083;DHT22;9168;51.194;6.840;2024-02-21T06:37:36;9.30;99.90
18083;DHT22;9168;51.194;6.840;2024-02-21T06:40:04;9.30;99.90
18083;DHT22;9168;51.194;6.840;2024-02-21T06:42:33;9.30;99.90
18083;DHT22;9168;51.194;6.840;2024-02-21T06:45:00;9.30;99.90
18083;DHT22;9168;51.194;6.840;2024-02-21T06:47:27;9.30;99.90
18083;DHT22;9168;51.194;6.840;2024-02-21T06:49:53;9.40;99.90
18083;DHT22;9168;51.194;6.840;2024-02-21T06:52:20;9.30;99.90
18083;DHT22;9168;51.194;6.840;2024-02-21T06:54:48;9.30;99.90
18083;DHT22;9168;51.194;6.840;2024-02-21T06:57:15;9.30;99.90
18083;DHT22;9168;51.194;6.840;2024-02-21T06:59:43;9.30;99.90
18083;DHT22;9168;51.194;6.840;2024-02-21T07:02:10;9.30;99.90
18083;DHT22;9168;51.194;6.840;2024-02-21T07:04:37;9.30;99.90
18083;DHT22;9168;51.194;6.840;2024-02-21T07:07:04;9.30;99.90
18083;DHT22;9168;51.194;6.840;2024-02-21T07:09:31;9.30;99.90
18083;DHT22;9168;51.194;6.840;2024-02-21T07:11:58;9.30;99.90
18083;DHT22;9168;51.194;6.840;2024-02-21T07:14:25;9.30;99.90
18083;DHT22;9168;51.194;6.840;2024-02-21T07:16:55;9.30;99.90
18083;DHT22;9168;51.194;6.840;2024-02-21T07:19:22;9.30;99.90
18083;DHT22;9168;51.194;6.840;2024-02-21T07:21:49;9.30;99.90
18083;DHT22;9168;51.194;6.840;2024-02-21T07:24:16;9.30;99.90
18083;DHT22;9168;51.194;6.840;2024-02-21T07:26:43;9.30;99.90
18083;DHT22;9168;51.194;6.840;2024-02-21T07:29:10;9.30;99.90
18083;DHT22;9168;51.194;6.840;2024-02-21T07:31:41;9.40;99.90
18083;DHT22;9168;51.194;6.840;2024-02-21T07:34:09;9.40;99.90
18083;DHT22;9168;51.194;6.840;2024-02-21T07:36:36;9.40;99.90
18083;DHT22;9168;51.194;6.840;2024-02-21T07:39:04;9.40;99.90
18083;DHT22;9168;51.194;6.840;2024-02-21T07:41:31;9.40;99.90
18083;DHT22;9168;51.194;6.840;2024-02-21T07:43:59;9.40;99.90
18083;DHT22;9168;51.194;6.840;2024-02-21T07:46:26;9.40;99.90
18083;DHT22;9168;51.194;6.840;2024-02-21T07:48:53;9.40;99.90
18083;DHT22;9168;51.194;6.840;2024-02-21T07:51:21;9.40;99.90
18083;DHT22;9168;51.194;6.840;2024-02-21T07:53:48;9.40;99.90
18083;DHT22;9168;51.194;6.840;2024-02-21T07:56:15;9.30;99.90
18083;DHT22;9168;51.194;6.840;2024-02-21T07:58:42;9.30;99.90
18083;DHT22;9168;51.194;6.840;2024-02-21T08:01:10;9.30;99.90
18083;DHT22;9168;51.194;6.840;2024-02-21T08:03:37;9.30;99.90
18083;DHT22;9168;51.194;6.840;2024-02-21T08:06:04;9.30;99.90
18083;DHT22;9168;51.194;6.840;2024-02-21T08:08:32;9.30;99.90
18083;DHT22;9168;51.194;6.840;2024-02-21T08:10:59;9.30;99.90
18083;DHT22;9168;51.194;6.840;2024-02-21T08:13:26;9.30;99.90
18083;DHT22;9168;51.194;6.840;2024-02-21T08:15:54;9.30;99.90
18083;DHT22;9168;51.194;6.840;2024-02-21T08:18:21;9.30;99.90
18083;DHT22;9168;51.194;6.840;2024-02-21T08:20:48;9.20;99.90
18083;DHT22;9168;51.194;6.840;2024-02-21T08:23:16;9.30;99.90
18083;DHT22;9168;51.194;6.840;2024-02-21T08:25:44;9.30;99.90
18083;DHT22;9168;51.194;6.840;2024-02-21T08:28:11;9.20;99.90
18083;DHT22;9168;51.194;6.840;2024-02-21T08:30:38;9.20;99.90
18083;DHT22;9168;51.194;6.840;2024-02-21T08:33:05;9.20;99.90
18083;DHT22;9168;51.194;6.840;2024-02-21T08:35:32;9.20;99.90
18083;DHT22;9168;51.194;6.840;2024-02-21T08:37:59;9.20;99.90
18083;DHT22;9168;51.194;6.840;2024-02-21T08:40:26;9.20;99.90
18083;DHT22;9168;51.194;6.840;2024-02-21T08:42:54;9.20;99.90
18083;DHT22;9168;51.194;6.840;2024-02-21T08:45:21;9.20;99.90
18083;DHT22;9168;51.194;6.840;2024-02-21T08:47:48;9.20;99.90
18083;DHT22;9168;51.194;6.840;2024-02-21T08:50:15;9.20;99.90
18083;DHT22;9168;51.194;6.840;2024-02-21T08:52:41;9.20;99.90
18083;DHT22;9168;51.194;6.840;2024-02-21T08:55:09;9.20;99.90
18083;DHT22;9168;51.194;6.840;2024-02-21T08:57:36;9.20;99.90
18083;DHT22;9168;51.194;6.840;2024-02-21T09:00:06;9.20;99.90
18083;DHT22;9168;51.194;6.840;2024-02-21T09:02:35;9.20;99.90
18083;DHT22;9168;51.194;6.840;2024-02-21T09:05:04;9.20;99.90
18083;DHT22;9168;51.194;6.840;2024-02-21T09:07:31;9.20;99.90
18083;DHT22;9168;51.194;6.840;2024-02-21T09:09:58;9.20;99.90
18083;DHT22;9168;51.194;6.840;2024-02-21T09:12:25;9.20;99.90
18083;DHT22;9168;51.194;6.840;2024-02-21T09:14:52;9.10;99.90
18083;DHT22;9168;51.194;6.840;2024-02-21T09:17:20;9.20;99.90
18083;DHT22;9168;51.194;6.840;2024-02-21T09:19:47;9.20;99.90
18083;DHT22;9168;51.194;6.840;2024-02-21T09:22:14;9.20;99.90
18083;DHT22;9168;51.194;6.840;2024-02-21T09:24:41;9.20;99.90
18083;DHT22;9168;51.194;6.840;2024-02-21T09:27:08;9.30;99.90
18083;DHT22;9168;51.194;6.840;2024-02-21T09:29:34;9.20;99.90
18083;DHT22;9168;51.194;6.840;2024-02-21T09:32:02;9.30;99.90
18083;DHT22;9168;51.194;6.840;2024-02-21T09:34:30;9.30;99.90
18083;DHT22;9168;51.194;6.840;2024-02-21T09:36:57;9.30;99.90
18083;DHT22;9168;51.194;6.840;2024-02-21T09:39:24;9.40;99.90
18083;DHT22;9168;51.194;6.840;2024-02-21T09:41:55;9.40;99.90
18083;DHT22;9168;51.194;6.840;2024-02-21T09:44:23;9.50;99.90
18083;DHT22;9168;51.194;6.840;2024-02-21T09:46:55;9.50;99.90
18083;DHT22;9168;51.194;6.840;2024-02-21T09:49:31;9.50;99.90
18083;DHT22;9168;51.194;6.840;2024-02-21T09:52:00;9.60;99.90
18083;DHT22;9168;51.194;6.840;2024-02-21T09:54:29;9.60;99.90
18083;DHT22;9168;51.194;6.840;2024-02-21T09:56:57;9.60;99.90
18083;DHT22;9168;51.194;6.840;2024-02-21T09:59:25;9.60;99.90
18083;DHT22;9168;51.194;6.840;2024-02-21T10:01:53;9.70;99.90
18083;DHT22;9168;51.194;6.840;2024-02-21T10:04:21;9.70;99.90
18083;DHT22;9168;51.194;6.840;2024-02-21T10:06:49;9.70;99.90
18083;DHT22;9168;51.194;6.840;2024-02-21T10:09:23;9.70;99.90
18083;DHT22;9168;51.194;6.840;2024-02-21T10:11:53;9.70;99.90
18083;DHT22;9168;51.194;6.840;2024-02-21T10:14:20;9.80;99.90
18083;DHT22;9168;51.194;6.840;2024-02-21T10:16:47;9.90;99.90
18083;DHT22;9168;51.194;6.840;2024-02-21T10:19:18;9.90;99.90
18083;DHT22;9168;51.194;6.840;2024-02-21T10:22:00;9.90;99.90
18083;DHT22;9168;51.194;6.840;2024-02-21T10:24:29;9.90;99.90
18083;DHT22;9168;51.194;6.840;2024-02-21T10:27:01;9.90;99.90
18083;DHT22;9168;51.194;6.840;2024-02-21T10:29:29;9.90;99.90
18083;DHT22;9168;51.194;6.840;2024-02-21T10:32:04;10.00;99.90
18083;DHT22;9168;51.194;6.840;2024-02-21T10:34:31;10.00;99.90
18083;DHT22;9168;51.194;6.840;2024-02-21T10:37:04;10.00;99.90
18083;DHT22;9168;51.194;6.840;2024-02-21T10:39:31;10.00;99.90
18083;DHT22;9168;51.194;6.840;2024-02-21T10:42:00;10.10;99.90
18083;DHT22;9168;51.194;6.840;2024-02-21T10:44:30;10.10;99.90
18083;DHT22;9168;51.194;6.840;2024-02-21T10:46:59;10.10;99.90
18083;DHT22;9168;51.194;6.840;2024-02-21T10:49:26;10.20;99.90
18083;DHT22;9168;51.194;6.840;2024-02-21T10:52:06;10.20;99.90
18083;DHT22;9168;51.194;6.840;2024-02-21T10:54:47;10.20;99.90
18083;DHT22;9168;51.194;6.840;2024-02-21T10:57:16;10.30;99.90
18083;DHT22;9168;51.194;6.840;2024-02-21T10:59:45;10.30;99.90
18083;DHT22;9168;51.194;6.840;2024-02-21T11:02:12;10.30;99.90
18083;DHT22;9168;51.194;6.840;2024-02-21T11:04:39;10.30;99.90
18083;DHT22;9168;51.194;6.840;2024-02-21T11:07:07;10.40;99.90
18083;DHT22;9168;51.194;6.840;2024-02-21T11:09:34;10.50;99.90
18083;DHT22;9168;51.194;6.840;2024-02-21T11:12:05;10.70;99.90
18083;DHT22;9168;51.194;6.840;2024-02-21T11:14:32;10.90;99.90
18083;DHT22;9168;51.194;6.840;2024-02-21T11:17:01;10.90;99.90
18083;DHT22;9168;51.194;6.840;2024-02-21T11:19:29;10.80;99.90
18083;DHT22;9168;51.194;6.840;2024-02-21T11:22:19;11.00;99.90
18083;DHT22;9168;51.194;6.840;2024-02-21T11:25:07;11.00;99.90
18083;DHT22;9168;51.194;6.840;2024-02-21T11:27:38;11.10;99.90
18083;DHT22;9168;51.194;6.840;2024-02-21T11:30:06;11.00;99.90
18083;DHT22;9168;51.194;6.840;2024-02-21T11:32:33;11.10;99.90
18083;DHT22;9168;51.194;6.840;2024-02-21T11:35:00;11.20;99.90
18083;DHT22;9168;51.194;6.840;2024-02-21T11:37:30;11.20;99.90
18083;DHT22;9168;51.194;6.840;2024-02-21T11:39:59;11.10;99.90
18083;DHT22;9168;51.194;6.840;2024-02-21T11:42:26;11.10;99.90
18083;DHT22;9168;51.194;6.840;2024-02-21T11:44:54;11.10;99.90
18083;DHT22;9168;51.194;6.840;2024-02-21T11:47:23;11.10;99.90
18083;DHT22;9168;51.194;6.840;2024-02-21T11:49:50;11.10;99.90
18083;DHT22;9168;51.194;6.840;2024-02-21T11:52:21;11.10;99.90
18083;DHT22;9168;51.194;6.840;2024-02-21T11:54:50;11.20;99.90
18083;DHT22;9168;51.194;6.840;2024-02-21T11:57:18;11.20;99.90
18083;DHT22;9168;51.194;6.840;2024-02-21T11:59:45;11.20;99.90
18083;DHT22;9168;51.194;6.840;2024-02-21T12:02:14;11.20;99.90
18083;DHT22;9168;51.194;6.840;2024-02-21T12:04:42;11.20;99.90
18083;DHT22;9168;51.194;6.840;2024-02-21T12:07:09;11.10;99.90
18083;DHT22;9168;51.194;6.840;2024-02-21T12:09:35;11.20;99.90
18083;DHT22;9168;51.194;6.840;2024-02-21T12:12:03;11.20;99.90
18083;DHT22;9168;51.194;6.840;2024-02-21T12:14:32;11.30;99.90
18083;DHT22;9168;51.194;6.840;2024-02-21T12:16:59;11.30;99.90
18083;DHT22;9168;51.194;6.840;2024-02-21T12:19:29;11.30;99.90
18083;DHT22;9168;51.194;6.840;2024-02-21T12:21:55;11.30;99.90
18083;DHT22;9168;51.194;6.840;2024-02-21T12:24:24;11.30;99.90
18083;DHT22;9168;51.194;6.840;2024-02-21T12:26:52;11.40;99.90
18083;DHT22;9168;51.194;6.840;2024-02-21T12:29:19;11.40;99.90
18083;DHT22;9168;51.194;6.840;2024-02-21T12:31:46;11.50;99.90
18083;DHT22;9168;51.194;6.840;2024-02-21T12:34:13;11.60;99.90
18083;DHT22;9168;51.194;6.840;2024-02-21T12:36:43;11.70;99.90
18083;DHT22;9168;51.194;6.840;2024-02-21T12:39:10;11.80;99.90
18083;DHT22;9168;51.194;6.840;2024-02-21T12:41:37;11.90;99.90
18083;DHT22;9168;51.194;6.840;2024-02-21T12:44:06;11.90;99.90
18083;DHT22;9168;51.194;6.840;2024-02-21T12:46:34;12.10;99.90
18083;DHT22;9168;51.194;6.840;2024-02-21T12:49:01;12.10;99.90
18083;DHT22;9168;51.194;6.840;2024-02-21T12:51:28;12.20;99.90
18083;DHT22;9168;51.194;6.840;2024-02-21T12:53:57;12.40;99.90
18083;DHT22;9168;51.194;6.840;2024-02-21T12:56:24;12.40;99.90
18083;DHT22;9168;51.194;6.840;2024-02-21T12:58:52;12.50;99.90
18083;DHT22;9168;51.194;6.840;2024-02-21T13:01:19;12.60;99.90
18083;DHT22;9168;51.194;6.840;2024-02-21T13:03:46;12.50;99.90
18083;DHT22;9168;51.194;6.840;2024-02-21T13:06:13;12.50;99.90
18083;DHT22;9168;51.194;6.840;2024-02-21T13:08:40;12.50;99.90
18083;DHT22;9168;51.194;6.840;2024-02-21T13:11:09;12.50;99.90
18083;DHT22;9168;51.194;6.840;2024-02-21T13:13:36;12.60;99.90
18083;DHT22;9168;51.194;6.840;2024-02-21T13:16:06;12.70;99.90
18083;DHT22;9168;51.194;6.840;2024-02-21T13:18:34;12.80;99.90
18083;DHT22;9168;51.194;6.840;2024-02-21T13:21:03;12.80;99.90
18083;DHT22;9168;51.194;6.840;2024-02-21T13:23:33;12.80;99.90
18083;DHT22;9168;51.194;6.840;2024-02-21T13:26:00;12.80;99.90
18083;DHT22;9168;51.194;6.840;2024-02-21T13:28:28;12.80;99.90
18083;DHT22;9168;51.194;6.840;2024-02-21T13:30:58;12.80;99.90
18083;DHT22;9168;51.194;6.840;2024-02-21T13:33:25;12.90;99.90
18083;DHT22;9168;51.194;6.840;2024-02-21T13:35:52;12.90;99.90
18083;DHT22;9168;51.194;6.840;2024-02-21T13:38:19;12.90;99.90
18083;DHT22;9168;51.194;6.840;2024-02-21T13:40:46;12.80;99.90
18083;DHT22;9168;51.194;6.840;2024-02-21T13:43:13;12.70;99.90
18083;DHT22;9168;51.194;6.840;2024-02-21T13:45:55;12.60;99.90
18083;DHT22;9168;51.194;6.840;2024-02-21T13:48:22;12.60;99.90
18083;DHT22;9168;51.194;6.840;2024-02-21T13:50:50;12.40;99.90
18083;DHT22;9168;51.194;6.840;2024-02-21T13:53:16;12.30;99.90
18083;DHT22;9168;51.194;6.840;2024-02-21T13:55:44;12.20;99.90
18083;DHT22;9168;51.194;6.840;2024-02-21T13:58:11;12.10;99.90
18083;DHT22;9168;51.194;6.840;2024-02-21T14:00:38;12.10;99.90
18083;DHT22;9168;51.194;6.840;2024-02-21T14:03:06;12.10;99.90
18083;DHT22;9168;51.194;6.840;2024-02-21T14:05:33;12.00;99.90
18083;DHT22;9168;51.194;6.840;2024-02-21T14:07:59;12.00;99.90
18083;DHT22;9168;51.194;6.840;2024-02-21T14:10:26;11.90;99.90
18083;DHT22;9168;51.194;6.840;2024-02-21T14:12:54;11.90;99.90
18083;DHT22;9168;51.194;6.840;2024-02-21T14:15:22;11.90;99.90
18083;DHT22;9168;51.194;6.840;2024-02-21T14:17:50;11.80;99.90
18083;DHT22;9168;51.194;6.840;2024-02-21T14:20:18;11.90;99.90
18083;DHT22;9168;51.194;6.840;2024-02-21T14:22:45;11.90;99.90
18083;DHT22;9168;51.194;6.840;2024-02-21T14:25:12;12.00;99.90
18083;DHT22;9168;51.194;6.840;2024-02-21T14:27:41;11.90;99.90
18083;DHT22;9168;51.194;6.840;2024-02-21T14:30:09;11.90;99.90
18083;DHT22;9168;51.194;6.840;2024-02-21T14:32:36;11.90;99.90
18083;DHT22;9168;51.194;6.840;2024-02-21T14:35:04;11.90;99.90
18083;DHT22;9168;51.194;6.840;2024-02-21T14:37:33;12.00;99.90
18083;DHT22;9168;51.194;6.840;2024-02-21T14:40:00;12.00;99.90
18083;DHT22;9168;51.194;6.840;2024-02-21T14:42:27;12.10;99.90
18083;DHT22;9168;51.194;6.840;2024-02-21T14:44:54;12.10;99.90
18083;DHT22;9168;51.194;6.840;2024-02-21T14:47:29;12.10;99.90
18083;DHT22;9168;51.194;6.840;2024-02-21T14:49:56;12.10;99.90
18083;DHT22;9168;51.194;6.840;2024-02-21T14:52:23;12.10;99.90
18083;DHT22;9168;51.194;6.840;2024-02-21T14:54:54;12.10;99.90
18083;DHT22;9168;51.194;6.840;2024-02-21T14:57:21;12.10;99.90
18083;DHT22;9168;51.194;6.840;2024-02-21T14:59:47;12.00;99.90
18083;DHT22;9168;51.194;6.840;2024-02-21T15:02:15;12.00;99.90
18083;DHT22;9168;51.194;6.840;2024-02-21T15:04:42;11.90;99.90
18083;DHT22;9168;51.194;6.840;2024-02-21T15:07:09;12.00;99.90
18083;DHT22;9168;51.194;6.840;2024-02-21T15:09:36;11.90;99.90
18083;DHT22;9168;51.194;6.840;2024-02-21T15:12:05;12.00;99.90
18083;DHT22;9168;51.194;6.840;2024-02-21T15:14:32;12.00;99.90
18083;DHT22;9168;51.194;6.840;2024-02-21T15:16:59;12.00;99.90
18083;DHT22;9168;51.194;6.840;2024-02-21T15:19:26;11.90;99.90
18083;DHT22;9168;51.194;6.840;2024-02-21T15:21:53;11.90;99.90
18083;DHT22;9168;51.194;6.840;2024-02-21T15:24:20;11.80;99.90
18083;DHT22;9168;51.194;6.840;2024-02-21T15:26:46;11.80;99.90
18083;DHT22;9168;51.194;6.840;2024-02-21T15:29:15;11.80;99.90
18083;DHT22;9168;51.194;6.840;2024-02-21T15:31:42;11.80;99.90
18083;DHT22;9168;51.194;6.840;2024-02-21T15:34:13;11.70;99.90
18083;DHT22;9168;51.194;6.840;2024-02-21T15:36:41;11.70;99.90
18083;DHT22;9168;51.194;6.840;2024-02-21T15:39:08;11.70;99.90
18083;DHT22;9168;51.194;6.840;2024-02-21T15:41:36;11.60;99.90
18083;DHT22;9168;51.194;6.840;2024-02-21T15:44:03;11.70;99.90
18083;DHT22;9168;51.194;6.840;2024-02-21T15:46:31;11.60;99.90
18083;DHT22;9168;51.194;6.840;2024-02-21T15:49:00;11.60;99.90
18083;DHT22;9168;51.194;6.840;2024-02-21T15:51:27;11.60;99.90
18083;DHT22;9168;51.194;6.840;2024-02-21T15:53:55;11.50;99.90
18083;DHT22;9168;51.194;6.840;2024-02-21T15:56:22;11.50;99.90
18083;DHT22;9168;51.194;6.840;2024-02-21T15:58:49;11.50;99.90
18083;DHT22;9168;51.194;6.840;2024-02-21T16:01:16;11.50;99.90